createdAt,value
2022-10-11T00:01:31.684Z,7.60
2022-10-11T00:03:36.371Z,8.10
2022-10-11T00:05:41.036Z,7.70
2022-10-11T00:07:45.737Z,8.00
2022-10-11T00:09:50.390Z,7.20
2022-10-11T00:11:57.535Z,7.80
2022-10-11T00:14:02.227Z,7.60
2022-10-11T00:16:11.731Z,7.80
2022-10-11T00:18:16.409Z,7.90
2022-10-11T00:20:21.361Z,7.60
2022-10-11T00:22:26.111Z,7.70
2022-10-11T00:24:30.971Z,7.30
2022-10-11T00:26:35.668Z,7.70
2022-10-11T00:28:41.519Z,7.80
2022-10-11T00:30:46.194Z,7.60
2022-10-11T00:32:50.861Z,7.70
2022-10-11T00:34:55.871Z,7.60
2022-10-11T00:37:01.254Z,7.60
2022-10-11T00:39:06.042Z,7.40
2022-10-11T00:41:10.848Z,7.40
2022-10-11T00:43:20.031Z,7.60
2022-10-11T00:46:06.907Z,7.70
2022-10-11T00:48:16.433Z,7.70
2022-10-11T00:50:23.564Z,7.80
2022-10-11T00:52:33.060Z,7.30
2022-10-11T00:54:41.439Z,7.00
2022-10-11T00:56:49.451Z,7.30
2022-10-11T00:58:55.773Z,7.60
2022-10-11T01:01:00.603Z,6.90
2022-10-11T01:03:06.752Z,7.60
2022-10-11T01:05:30.435Z,7.30
2022-10-11T01:07:36.447Z,7.10
2022-10-11T01:09:41.083Z,6.90
2022-10-11T01:11:47.148Z,7.40
2022-10-11T01:14:07.235Z,6.80
2022-10-11T01:16:21.223Z,7.10
2022-10-11T01:18:34.820Z,7.40
2022-10-11T01:20:48.576Z,7.40
2022-10-11T01:23:25.413Z,7.20
2022-10-11T01:25:37.714Z,6.90
2022-10-11T01:28:00.109Z,7.30
2022-10-11T01:30:20.480Z,7.20
2022-10-11T01:32:32.285Z,7.30
2022-10-11T01:34:41.825Z,7.30
2022-10-11T01:36:53.769Z,7.20
2022-10-11T01:39:04.403Z,6.60
2022-10-11T01:41:15.531Z,6.70
2022-10-11T01:43:21.851Z,6.80
2022-10-11T01:45:26.566Z,6.80
2022-10-11T01:47:31.255Z,6.60
2022-10-11T01:49:36.297Z,6.30
2022-10-11T01:51:47.190Z,6.30
2022-10-11T01:54:56.652Z,6.60
2022-10-11T01:57:31.617Z,6.00
2022-10-11T01:59:47.982Z,6.00
2022-10-11T02:02:02.364Z,6.10
2022-10-11T02:04:15.318Z,6.00
2022-10-11T02:06:25.520Z,6.00
2022-10-11T02:08:38.976Z,5.80
2022-10-11T02:10:49.504Z,6.00
2022-10-11T02:12:59.403Z,6.40
2022-10-11T02:15:07.761Z,6.00
2022-10-11T02:17:16.906Z,6.30
2022-10-11T02:19:26.203Z,6.50
2022-10-11T02:21:33.944Z,6.20
2022-10-11T02:23:45.354Z,6.20
2022-10-11T02:25:52.116Z,6.20
2022-10-11T02:28:01.617Z,5.20
2022-10-11T02:30:09.116Z,6.20
2022-10-11T02:32:16.186Z,6.20
2022-10-11T02:34:24.461Z,6.30
2022-10-11T02:36:49.753Z,7.30
2022-10-11T02:38:59.355Z,6.30
2022-10-11T02:41:10.769Z,6.20
2022-10-11T02:43:18.211Z,6.30
2022-10-11T02:45:27.967Z,5.90
2022-10-11T02:47:33.589Z,6.10
2022-10-11T02:49:38.497Z,6.20
2022-10-11T02:51:43.351Z,6.40
2022-10-11T02:53:47.941Z,6.30
2022-10-11T02:55:53.995Z,6.40
2022-10-11T02:57:58.585Z,5.90
2022-10-11T03:00:03.794Z,6.20
2022-10-11T03:02:08.510Z,6.60
2022-10-11T03:04:13.637Z,6.20
2022-10-11T03:06:18.287Z,6.60
2022-10-11T03:08:22.972Z,6.10
2022-10-11T03:10:27.633Z,6.10
2022-10-11T03:12:32.345Z,6.10
2022-10-11T03:14:37.002Z,6.40
2022-10-11T03:16:41.718Z,6.50
2022-10-11T03:18:46.366Z,6.70
2022-10-11T03:20:50.993Z,6.30
2022-10-11T03:22:55.648Z,6.60
2022-10-11T03:25:04.015Z,6.40
2022-10-11T03:27:09.588Z,6.40
2022-10-11T03:29:15.541Z,6.90
2022-10-11T03:31:20.556Z,6.70
2022-10-11T03:33:25.252Z,6.90
2022-10-11T03:35:29.881Z,6.50
2022-10-11T03:37:34.691Z,7.00
2022-10-11T03:39:40.423Z,6.60
2022-10-11T03:41:45.122Z,6.40
2022-10-11T03:43:49.757Z,6.80
2022-10-11T03:45:54.390Z,6.50
2022-10-11T03:47:59.029Z,6.90
2022-10-11T03:50:04.381Z,6.70
2022-10-11T03:52:09.031Z,7.30
2022-10-11T03:54:13.667Z,7.30
2022-10-11T03:56:18.315Z,7.10
2022-10-11T03:58:23.500Z,7.20
2022-10-11T04:00:28.228Z,7.40
2022-10-11T04:02:37.003Z,7.10
2022-10-11T04:04:43.764Z,7.80
2022-10-11T04:06:48.433Z,8.00
2022-10-11T04:08:53.103Z,7.60
2022-10-11T04:10:57.777Z,7.60
2022-10-11T04:13:02.444Z,7.90
2022-10-11T04:15:08.415Z,8.30
2022-10-11T04:17:12.970Z,7.90
2022-10-11T04:19:17.773Z,7.60
2022-10-11T04:21:22.480Z,7.70
2022-10-11T04:23:27.263Z,8.60
2022-10-11T04:25:31.876Z,9.10
2022-10-11T04:27:36.689Z,8.00
2022-10-11T04:29:41.292Z,8.70
2022-10-11T04:31:45.969Z,8.80
2022-10-11T04:33:50.590Z,8.50
2022-10-11T04:35:57.007Z,8.10
2022-10-11T04:38:01.758Z,7.60
2022-10-11T04:40:07.793Z,8.30
2022-10-11T04:42:12.649Z,8.10
2022-10-11T04:44:17.273Z,8.10
2022-10-11T04:46:21.929Z,8.40
2022-10-11T04:48:26.612Z,8.00
2022-10-11T04:50:31.222Z,8.10
2022-10-11T04:52:35.812Z,7.70
2022-10-11T04:54:40.450Z,10.50
2022-10-11T04:56:45.017Z,8.00
2022-10-11T04:58:49.710Z,8.40
2022-10-11T05:00:57.168Z,7.80
2022-10-11T05:03:01.879Z,8.30
2022-10-11T05:05:07.941Z,8.50
2022-10-11T05:07:12.611Z,8.20
2022-10-11T05:09:17.275Z,7.90
2022-10-11T05:11:21.946Z,7.90
2022-10-11T05:13:27.004Z,8.60
2022-10-11T05:15:31.729Z,8.10
2022-10-11T05:17:36.357Z,9.80
2022-10-11T05:19:41.185Z,8.60
2022-10-11T05:21:45.767Z,8.00
2022-10-11T05:23:52.604Z,8.10
2022-10-11T05:25:57.328Z,8.10
2022-10-11T05:28:02.003Z,8.20
2022-10-11T05:30:08.672Z,8.00
2022-10-11T05:32:13.293Z,8.00
2022-10-11T05:34:17.914Z,7.70
2022-10-11T05:36:22.681Z,7.80
2022-10-11T05:38:27.428Z,7.60
2022-10-11T05:40:32.151Z,7.80
2022-10-11T05:42:36.914Z,7.60
2022-10-11T05:44:41.517Z,7.80
2022-10-11T05:46:46.167Z,7.50
2022-10-11T05:48:50.819Z,8.20
2022-10-11T05:51:00.910Z,7.60
2022-10-11T05:53:06.243Z,7.80
2022-10-11T05:55:11.435Z,8.10
2022-10-11T05:57:16.104Z,7.50
2022-10-11T05:59:20.768Z,7.40
2022-10-11T06:01:26.857Z,7.60
2022-10-11T06:03:32.069Z,8.40
2022-10-11T06:05:37.203Z,7.70
2022-10-11T06:07:41.928Z,7.70
2022-10-11T06:09:46.534Z,7.80
2022-10-11T06:11:51.227Z,7.70
2022-10-11T06:13:57.695Z,7.60
2022-10-11T06:16:05.455Z,7.60
2022-10-11T06:18:10.368Z,7.40
2022-10-11T06:20:15.208Z,7.60
2022-10-11T06:22:19.888Z,7.80
2022-10-11T06:24:24.633Z,7.80
2022-10-11T06:26:29.493Z,7.80
2022-10-11T06:28:36.012Z,7.90
2022-10-11T06:30:41.338Z,7.90
2022-10-11T06:32:45.985Z,7.80
2022-10-11T06:34:50.620Z,7.50
2022-10-11T06:36:55.275Z,7.60
2022-10-11T06:38:59.852Z,7.70
2022-10-11T06:41:13.330Z,7.80
2022-10-11T06:43:18.012Z,7.50
2022-10-11T06:45:22.643Z,7.40
2022-10-11T06:47:27.382Z,6.90
2022-10-11T06:49:31.964Z,9.70
2022-10-11T06:51:36.653Z,7.00
2022-10-11T06:53:41.637Z,7.60
2022-10-11T06:55:46.228Z,7.70
2022-10-11T06:57:50.866Z,7.40
2022-10-11T06:59:55.472Z,7.40
2022-10-11T07:02:00.117Z,7.30
2022-10-11T07:04:04.950Z,7.50
2022-10-11T07:06:11.649Z,7.50
2022-10-11T07:08:16.239Z,6.90
2022-10-11T07:10:20.922Z,8.00
2022-10-11T07:12:25.577Z,9.80
2022-10-11T07:14:30.359Z,9.80
2022-10-11T07:16:35.811Z,10.30
2022-10-11T07:18:41.058Z,10.00
2022-10-11T07:20:45.731Z,10.90
2022-10-11T07:22:50.388Z,10.80
2022-10-11T07:24:55.013Z,10.00
2022-10-11T07:26:59.733Z,10.20
2022-10-11T07:29:04.452Z,10.80
2022-10-11T07:31:11.070Z,10.30
2022-10-11T07:33:15.787Z,9.30
2022-10-11T07:35:20.473Z,11.20
2022-10-11T07:37:25.083Z,10.50
2022-10-11T07:39:29.749Z,10.20
2022-10-11T07:41:34.446Z,10.00
2022-10-11T07:43:39.763Z,10.90
2022-10-11T07:45:45.515Z,10.10
2022-10-11T07:47:50.183Z,10.80
2022-10-11T07:49:54.936Z,10.50
2022-10-11T07:51:59.855Z,12.00
2022-10-11T07:54:08.035Z,10.80
2022-10-11T07:56:14.635Z,10.80
2022-10-11T07:58:19.378Z,11.00
2022-10-11T08:00:24.265Z,10.00
2022-10-11T08:02:29.071Z,10.60
2022-10-11T08:04:33.757Z,10.10
2022-10-11T08:06:38.387Z,10.60
2022-10-11T08:08:43.277Z,10.50
2022-10-11T08:10:48.044Z,9.40
2022-10-11T08:12:52.677Z,10.00
2022-10-11T08:14:57.798Z,10.80
2022-10-11T08:17:02.487Z,10.20
2022-10-11T08:19:07.225Z,11.20
2022-10-11T08:21:14.298Z,11.80
2022-10-11T08:23:19.445Z,10.70
2022-10-11T08:25:24.089Z,10.00
2022-10-11T08:27:28.867Z,10.70
2022-10-11T08:29:33.815Z,10.20
2022-10-11T08:31:38.437Z,9.70
2022-10-11T08:33:43.860Z,10.40
2022-10-11T08:35:49.031Z,9.60
2022-10-11T08:37:53.971Z,9.90
2022-10-11T08:39:58.622Z,9.60
2022-10-11T08:42:06.724Z,10.40
2022-10-11T08:44:51.835Z,9.70
2022-10-11T08:47:01.893Z,9.30
2022-10-11T08:49:07.454Z,9.30
2022-10-11T08:51:29.220Z,9.60
2022-10-11T08:53:44.947Z,9.00
2022-10-11T08:55:52.431Z,9.80
2022-10-11T08:57:58.944Z,9.10
2022-10-11T09:00:06.965Z,7.80
2022-10-11T09:02:24.555Z,7.70
2022-10-11T09:04:29.462Z,7.70
2022-10-11T09:06:43.197Z,7.70
2022-10-11T09:09:02.698Z,7.60
2022-10-11T09:11:16.917Z,6.60
2022-10-11T09:13:36.215Z,7.40
2022-10-11T09:15:48.631Z,7.50
2022-10-11T09:18:27.195Z,7.20
2022-10-11T09:20:47.807Z,7.30
2022-10-11T09:23:02.664Z,7.00
2022-10-11T09:25:25.452Z,6.50
2022-10-11T09:28:00.753Z,7.10
2022-10-11T09:30:04.651Z,6.90
2022-10-11T09:32:15.167Z,7.70
2022-10-11T09:34:23.843Z,7.20
2022-10-11T09:36:34.084Z,7.40
2022-10-11T09:38:45.935Z,6.90
2022-10-11T09:41:01.795Z,7.20
2022-10-11T09:43:08.012Z,7.20
2022-10-11T09:45:17.378Z,7.50
2022-10-11T09:47:25.949Z,6.90
2022-10-11T09:49:35.587Z,7.10
2022-10-11T09:51:44.864Z,7.10
2022-10-11T09:53:55.508Z,6.80
2022-10-11T09:56:05.798Z,7.30
2022-10-11T09:58:28.175Z,6.90
2022-10-11T10:00:33.556Z,6.80
2022-10-11T10:02:45.433Z,7.20
2022-10-11T10:05:02.043Z,7.30
2022-10-11T10:07:15.490Z,6.70
2022-10-11T10:09:26.091Z,7.40
2022-10-11T10:11:37.679Z,7.30
2022-10-11T10:13:46.380Z,7.40
2022-10-11T10:15:53.243Z,7.30
2022-10-11T10:17:58.552Z,7.40
2022-10-11T10:20:04.181Z,7.30
2022-10-11T10:22:19.181Z,7.70
2022-10-11T10:24:40.845Z,7.10
2022-10-11T10:27:16.081Z,6.60
2022-10-11T10:29:20.695Z,6.90
2022-10-11T10:31:29.820Z,7.00
2022-10-11T10:33:35.158Z,6.90
2022-10-11T10:35:46.125Z,6.50
2022-10-11T10:37:57.551Z,7.20
2022-10-11T10:40:07.428Z,9.30
2022-10-11T10:42:16.443Z,7.00
2022-10-11T10:44:21.081Z,6.90
2022-10-11T10:46:40.654Z,6.90
2022-10-11T10:49:34.557Z,7.10
2022-10-11T10:51:36.484Z,6.40
2022-10-11T10:53:45.291Z,6.30
2022-10-11T10:55:57.378Z,6.90
2022-10-11T10:58:23.067Z,5.80
2022-10-11T11:00:36.567Z,5.90
2022-10-11T11:02:50.200Z,6.50
2022-10-11T11:05:03.746Z,7.00
2022-10-11T11:07:20.665Z,6.00
2022-10-11T11:09:35.283Z,5.70
2022-10-11T11:11:55.904Z,6.30
2022-10-11T11:14:10.558Z,5.70
2022-10-11T11:16:25.177Z,5.30
2022-10-11T11:18:42.236Z,4.80
2022-10-11T11:20:57.773Z,4.10
2022-10-11T11:23:08.872Z,4.00
2022-10-11T11:25:24.993Z,3.30
2022-10-11T11:27:48.339Z,4.40
2022-10-11T11:30:00.877Z,3.90
2022-10-11T11:32:17.551Z,4.30
2022-10-11T11:34:26.362Z,4.60
2022-10-11T11:36:43.019Z,5.20
2022-10-11T11:38:53.501Z,4.00
2022-10-11T11:41:00.615Z,4.80
2022-10-11T11:43:15.198Z,4.50
2022-10-11T11:45:25.847Z,4.90
2022-10-11T11:47:34.514Z,3.90
2022-10-11T11:51:50.129Z,4.20
2022-10-11T11:54:03.409Z,4.30
2022-10-11T11:56:17.021Z,3.90
2022-10-11T11:58:34.135Z,3.90
2022-10-11T12:00:50.834Z,3.70
2022-10-11T12:02:59.815Z,4.10
2022-10-11T12:05:08.004Z,4.10
2022-10-11T12:07:16.774Z,4.00
2022-10-11T12:09:23.690Z,4.00
2022-10-11T12:11:38.480Z,4.30
2022-10-11T12:13:43.495Z,4.10
2022-10-11T12:16:00.737Z,4.40
2022-10-11T12:18:13.841Z,4.30
2022-10-11T12:20:24.940Z,4.50
2022-10-11T12:22:54.650Z,4.10
2022-10-11T12:25:01.714Z,4.90
2022-10-11T12:27:39.058Z,4.30
2022-10-11T12:29:49.271Z,4.00
2022-10-11T12:32:33.194Z,4.40
2022-10-11T12:36:46.820Z,4.00
2022-10-11T12:39:33.667Z,4.10
2022-10-11T12:41:52.672Z,3.80
2022-10-11T12:44:19.564Z,4.00
2022-10-11T12:47:00.512Z,3.90
2022-10-11T12:49:17.959Z,3.90
2022-10-11T12:51:37.214Z,3.80
2022-10-11T12:54:25.525Z,3.70
2022-10-11T12:56:42.965Z,3.50
2022-10-11T12:58:49.877Z,3.70
2022-10-11T13:01:22.500Z,3.70
2022-10-11T13:03:32.535Z,3.80
2022-10-11T13:05:45.892Z,3.90
2022-10-11T13:07:54.069Z,4.30
2022-10-11T13:09:58.773Z,4.20
2022-10-11T13:12:09.323Z,3.90
2022-10-11T13:14:19.022Z,4.40
2022-10-11T13:16:27.352Z,3.90
2022-10-11T13:18:31.994Z,3.90
2022-10-11T13:20:38.977Z,4.00
2022-10-11T13:22:50.649Z,4.00
2022-10-11T13:24:56.966Z,4.00
2022-10-11T13:27:02.025Z,3.90
2022-10-11T13:29:15.425Z,3.90
2022-10-11T13:31:20.139Z,3.80
2022-10-11T13:33:30.637Z,3.80
2022-10-11T13:35:37.418Z,4.00
2022-10-11T13:37:47.463Z,3.90
2022-10-11T13:39:53.678Z,3.80
2022-10-11T13:41:59.450Z,4.10
2022-10-11T13:44:04.777Z,4.20
2022-10-11T13:46:16.713Z,3.80
2022-10-11T13:48:22.785Z,4.00
2022-10-11T13:50:28.667Z,4.10
2022-10-11T13:52:34.142Z,3.90
2022-10-11T13:55:23.054Z,4.10
2022-10-11T13:57:37.191Z,4.00
2022-10-11T13:59:44.074Z,4.40
2022-10-11T14:01:51.854Z,4.20
2022-10-11T14:03:59.783Z,4.70
2022-10-11T14:06:05.332Z,4.50
2022-10-11T14:08:22.316Z,4.30
2022-10-11T14:10:27.573Z,4.70
2022-10-11T14:12:35.687Z,4.40
2022-10-11T14:14:43.456Z,4.00
2022-10-11T14:16:57.684Z,4.40
2022-10-11T14:19:10.485Z,4.40
2022-10-11T14:21:30.133Z,3.90
2022-10-11T14:23:34.862Z,4.20
2022-10-11T14:25:39.571Z,4.20
2022-10-11T14:27:44.366Z,4.30
2022-10-11T14:30:19.911Z,4.40
2022-10-11T14:32:16.948Z,4.20
2022-10-11T14:34:24.178Z,4.00
2022-10-11T14:36:28.899Z,3.90
2022-10-11T14:38:33.662Z,4.40
2022-10-11T14:40:38.267Z,4.70
2022-10-11T14:42:43.035Z,4.40
2022-10-11T14:44:47.742Z,4.10
2022-10-11T14:46:54.731Z,4.20
2022-10-11T14:48:59.715Z,4.10
2022-10-11T14:51:05.940Z,4.20
2022-10-11T14:53:11.432Z,4.60
2022-10-11T14:55:16.168Z,4.50
2022-10-11T14:57:20.831Z,4.30
2022-10-11T14:59:28.116Z,4.80
2022-10-11T15:01:33.479Z,4.40
2022-10-11T15:03:38.727Z,4.60
2022-10-11T15:05:43.498Z,4.40
2022-10-11T15:07:48.191Z,4.60
2022-10-11T15:09:52.879Z,4.60
2022-10-11T15:11:57.950Z,4.40
2022-10-11T15:14:02.706Z,4.70
2022-10-11T15:16:08.586Z,5.00
2022-10-11T15:18:14.926Z,4.40
2022-10-11T15:20:27.133Z,5.10
2022-10-11T15:22:32.986Z,5.00
2022-10-11T15:24:37.594Z,5.10
2022-10-11T15:26:42.591Z,4.60
2022-10-11T15:28:47.955Z,4.40
2022-10-11T15:30:52.773Z,5.20
2022-10-11T15:32:57.847Z,4.50
2022-10-11T15:35:02.577Z,5.00
2022-10-11T15:37:07.207Z,4.60
2022-10-11T15:39:25.314Z,4.90
2022-10-11T15:41:32.824Z,4.80
2022-10-11T15:43:37.540Z,4.50
2022-10-11T15:45:42.583Z,4.30
2022-10-11T15:47:47.943Z,4.50
2022-10-11T15:49:52.690Z,5.00
2022-10-11T15:51:57.377Z,4.80
2022-10-11T15:54:05.044Z,4.90
2022-10-11T15:56:13.006Z,5.00
2022-10-11T15:58:19.543Z,4.70
2022-10-11T16:00:27.235Z,4.40
2022-10-11T16:02:31.965Z,4.80
2022-10-11T16:04:36.886Z,4.80
2022-10-11T16:06:41.686Z,5.20
2022-10-11T16:08:46.648Z,5.20
2022-10-11T16:10:52.022Z,5.10
2022-10-11T16:12:56.799Z,4.80
2022-10-11T16:15:01.535Z,4.80
2022-10-11T16:17:06.185Z,4.40
2022-10-11T16:19:10.832Z,4.80
2022-10-11T16:21:15.768Z,4.80
2022-10-11T16:23:21.601Z,4.60
2022-10-11T16:25:26.324Z,4.60
2022-10-11T16:27:31.422Z,4.60
2022-10-11T16:29:36.221Z,4.40
2022-10-11T16:31:40.949Z,4.60
2022-10-11T16:33:46.497Z,5.10
2022-10-11T16:35:51.506Z,4.90
2022-10-11T16:37:56.148Z,4.80
2022-10-11T16:40:01.191Z,4.80
2022-10-11T16:42:06.240Z,4.60
2022-10-11T16:44:14.096Z,7.00
2022-10-11T16:46:19.106Z,5.50
2022-10-11T16:48:23.793Z,4.80
2022-10-11T16:50:28.639Z,5.40
2022-10-11T16:52:33.342Z,5.60
2022-10-11T16:54:38.237Z,5.80
2022-10-11T16:56:42.905Z,5.70
2022-10-11T16:58:48.388Z,6.80
2022-10-11T17:00:53.129Z,6.70
2022-10-11T17:02:57.959Z,7.10
2022-10-11T17:05:03.359Z,7.10
2022-10-11T17:07:09.148Z,7.20
2022-10-11T17:09:14.400Z,7.00
2022-10-11T17:11:20.210Z,7.50
2022-10-11T17:13:25.248Z,7.70
2022-10-11T17:15:29.976Z,7.70
2022-10-11T17:17:34.752Z,8.30
2022-10-11T17:19:44.864Z,7.90
2022-10-11T17:21:50.445Z,7.60
2022-10-11T17:23:55.870Z,8.10
2022-10-11T17:26:08.626Z,8.30
2022-10-11T17:28:16.036Z,8.10
2022-10-11T17:30:21.197Z,8.40
2022-10-11T17:32:26.401Z,8.20
2022-10-11T17:34:31.685Z,8.60
2022-10-11T17:36:37.356Z,8.50
2022-10-11T17:38:44.091Z,8.50
2022-10-11T17:40:58.446Z,8.80
2022-10-11T17:43:04.627Z,8.80
2022-10-11T17:45:10.282Z,8.70
2022-10-11T17:47:16.782Z,8.50
2022-10-11T17:49:21.609Z,8.70
2022-10-11T17:51:26.877Z,8.60
2022-10-11T17:53:32.523Z,9.00
2022-10-11T17:55:43.106Z,9.20
2022-10-11T17:57:47.954Z,8.90
2022-10-11T17:59:56.357Z,9.00
2022-10-11T18:02:01.563Z,9.30
2022-10-11T18:04:07.513Z,8.60
2022-10-11T18:06:15.763Z,9.00
2022-10-11T18:08:21.098Z,9.60
2022-10-11T18:10:27.028Z,9.30
2022-10-11T18:12:36.235Z,9.30
2022-10-11T18:14:41.320Z,9.70
2022-10-11T18:16:47.458Z,9.50
2022-10-11T18:18:54.119Z,9.40
2022-10-11T18:21:01.939Z,10.10
2022-10-11T18:23:08.071Z,9.30
2022-10-11T18:25:13.177Z,10.10
2022-10-11T18:27:18.715Z,9.80
2022-10-11T18:29:24.528Z,9.40
2022-10-11T18:31:31.618Z,9.90
2022-10-11T18:33:37.272Z,9.90
2022-10-11T18:35:43.434Z,9.30
2022-10-11T18:37:49.717Z,10.20
2022-10-11T18:39:55.438Z,9.90
2022-10-11T18:42:01.130Z,9.90
2022-10-11T18:44:09.087Z,10.00
2022-10-11T18:46:17.588Z,9.60
2022-10-11T18:48:23.672Z,10.40
2022-10-11T18:50:30.468Z,9.90
2022-10-11T18:52:35.921Z,10.10
2022-10-11T18:54:41.650Z,10.10
2022-10-11T18:56:46.912Z,9.90
2022-10-11T18:58:52.725Z,10.50
2022-10-11T19:01:03.443Z,10.50
2022-10-11T19:03:08.210Z,9.80
2022-10-11T19:05:13.771Z,10.40
2022-10-11T19:07:19.387Z,10.10
2022-10-11T19:09:24.963Z,10.00
2022-10-11T19:11:31.540Z,10.40
2022-10-11T19:13:37.307Z,10.90
2022-10-11T19:15:42.399Z,11.10
2022-10-11T19:17:47.827Z,10.90
2022-10-11T19:19:53.718Z,11.30
2022-10-11T19:21:58.764Z,12.60
2022-10-11T19:24:05.232Z,12.60
2022-10-11T19:26:14.404Z,10.00
2022-10-11T19:28:19.757Z,10.10
2022-10-11T19:30:24.786Z,10.20
2022-10-11T19:32:29.861Z,11.00
2022-10-11T19:34:35.001Z,10.40
2022-10-11T19:36:41.957Z,10.20
2022-10-11T19:38:49.899Z,10.30
2022-10-11T19:40:55.275Z,10.60
2022-10-11T19:43:00.905Z,10.80
2022-10-11T19:45:07.380Z,10.90
2022-10-11T19:47:12.941Z,10.70
2022-10-11T19:49:17.690Z,10.90
2022-10-11T19:51:24.387Z,11.70
2022-10-11T19:53:29.571Z,13.40
2022-10-11T19:55:35.857Z,11.70
2022-10-11T19:57:41.294Z,11.10
2022-10-11T19:59:46.134Z,11.00
2022-10-11T20:01:53.055Z,11.40
2022-10-11T20:04:00.351Z,11.00
2022-10-11T20:06:07.420Z,11.50
2022-10-11T20:08:12.424Z,11.30
2022-10-11T20:10:17.343Z,10.90
2022-10-11T20:12:22.225Z,10.90
2022-10-11T20:14:27.311Z,12.40
2022-10-11T20:16:32.092Z,13.30
2022-10-11T20:18:37.505Z,12.60
2022-10-11T20:20:52.611Z,11.60
2022-10-11T20:22:57.569Z,12.80
2022-10-11T20:25:02.625Z,15.20
2022-10-11T20:27:07.751Z,11.90
2022-10-11T20:29:12.457Z,11.20
2022-10-11T20:31:19.121Z,10.80
2022-10-11T20:33:23.894Z,11.00
2022-10-11T20:35:28.527Z,11.50
2022-10-11T20:37:34.884Z,10.70
2022-10-11T20:39:39.707Z,12.00
2022-10-11T20:41:44.465Z,10.10
2022-10-11T20:43:50.753Z,10.50
2022-10-11T20:46:03.358Z,9.80
2022-10-11T20:48:08.440Z,9.80
2022-10-11T20:50:13.107Z,9.70
2022-10-11T20:52:17.808Z,10.10
2022-10-11T20:54:22.423Z,9.60
2022-10-11T20:56:27.110Z,9.90
2022-10-11T20:58:32.090Z,9.30
2022-10-11T21:00:38.690Z,10.00
2022-10-11T21:02:43.561Z,9.50
2022-10-11T21:04:48.210Z,9.00
2022-10-11T21:06:52.875Z,9.90
2022-10-11T21:08:57.851Z,9.10
2022-10-11T21:11:03.582Z,9.70
2022-10-11T21:13:08.236Z,9.20
2022-10-11T21:15:13.090Z,9.30
2022-10-11T21:17:17.755Z,9.00
2022-10-11T21:19:22.597Z,10.30
2022-10-11T21:21:28.355Z,9.70
2022-10-11T21:23:33.080Z,9.80
2022-10-11T21:25:38.003Z,10.00
2022-10-11T21:27:42.701Z,10.10
2022-10-11T21:29:47.389Z,8.70
2022-10-11T21:31:52.095Z,8.90
2022-10-11T21:33:56.792Z,9.50
2022-10-11T21:36:04.877Z,8.90
2022-10-11T21:38:11.212Z,8.90
2022-10-11T21:40:16.883Z,8.90
2022-10-11T21:42:27.186Z,9.10
2022-10-11T21:44:34.995Z,9.50
2022-10-11T21:47:05.510Z,9.80
2022-10-11T21:49:04.953Z,10.30
2022-10-11T21:53:19.893Z,10.40
2022-10-11T21:55:25.904Z,9.60
2022-10-11T21:57:31.155Z,9.60
2022-10-11T21:59:36.388Z,9.10
2022-10-11T22:01:43.205Z,9.40
2022-10-11T22:03:49.225Z,8.40
2022-10-11T22:05:55.287Z,8.20
2022-10-11T22:08:00.358Z,8.50
2022-10-11T22:10:06.065Z,8.20
2022-10-11T22:12:11.341Z,9.10
2022-10-11T22:14:17.151Z,8.10
2022-10-11T22:16:22.488Z,8.30
2022-10-11T22:18:32.251Z,8.30
2022-10-11T22:20:38.716Z,8.70
2022-10-11T22:22:44.121Z,8.50
2022-10-11T22:24:50.541Z,8.80
2022-10-11T22:26:55.732Z,8.50
2022-10-11T22:29:01.577Z,8.30
2022-10-11T22:31:08.681Z,8.20
2022-10-11T22:33:13.965Z,8.50
2022-10-11T22:35:19.393Z,8.20
2022-10-11T22:37:25.105Z,8.40
2022-10-11T22:39:33.354Z,7.90
2022-10-11T22:41:38.894Z,8.50
2022-10-11T22:43:47.022Z,8.30
2022-10-11T22:45:52.246Z,7.80
2022-10-11T22:48:00.126Z,8.10
2022-10-11T22:50:05.890Z,8.20
2022-10-11T22:52:11.142Z,8.50
2022-10-11T22:54:16.649Z,8.30
2022-10-11T22:56:21.813Z,7.80
2022-10-11T22:58:27.275Z,8.10
2022-10-11T23:00:32.378Z,8.20
2022-10-11T23:02:40.614Z,8.20
2022-10-11T23:04:45.813Z,8.00
2022-10-11T23:06:50.623Z,7.80
2022-10-11T23:08:55.299Z,7.40
2022-10-11T23:11:03.944Z,7.30
2022-10-11T23:13:08.693Z,7.60
2022-10-11T23:15:14.042Z,7.60
2022-10-11T23:17:18.695Z,8.10
2022-10-11T23:19:23.417Z,7.60
2022-10-11T23:21:28.074Z,7.50
2022-10-11T23:23:32.877Z,7.40
2022-10-11T23:25:37.639Z,7.30
2022-10-11T23:27:42.323Z,7.90
2022-10-11T23:29:47.063Z,8.10
2022-10-11T23:31:52.015Z,7.70
2022-10-11T23:33:56.736Z,7.60
2022-10-11T23:36:01.576Z,8.20
2022-10-11T23:38:06.338Z,7.80
2022-10-11T23:40:11.876Z,8.00
2022-10-11T23:42:16.514Z,7.80
2022-10-11T23:44:21.269Z,8.30
2022-10-11T23:46:26.161Z,8.40
2022-10-11T23:48:30.928Z,8.00
2022-10-11T23:50:35.691Z,7.80
2022-10-11T23:52:40.418Z,8.30
2022-10-11T23:54:45.051Z,7.70
2022-10-11T23:56:49.831Z,8.10
2022-10-11T23:58:54.399Z,8.50
